sensor_id;sensor_type;location;lat;lon;timestamp;P1;durP1;ratioP1;P2;durP2;ratioP2
73959;SDS011;62316;48.920;2.342;2022-11-20T00:01:50;7.00;;;7.00;;
73959;SDS011;62316;48.920;2.342;2022-11-20T00:04:22;7.00;;;7.00;;
73959;SDS011;62316;48.920;2.342;2022-11-20T00:06:48;14.75;;;11.50;;
73959;SDS011;62316;48.920;2.342;2022-11-20T00:09:13;6.25;;;6.25;;
73959;SDS011;62316;48.920;2.342;2022-11-20T00:11:38;10.00;;;10.00;;
73959;SDS011;62316;48.920;2.342;2022-11-20T00:14:03;17.75;;;10.25;;
73959;SDS011;62316;48.920;2.342;2022-11-20T00:16:39;5.75;;;5.00;;
73959;SDS011;62316;48.920;2.342;2022-11-20T00:19:04;10.00;;;7.50;;
73959;SDS011;62316;48.920;2.342;2022-11-20T00:21:30;7.75;;;6.50;;
73959;SDS011;62316;48.920;2.342;2022-11-20T00:23:56;6.00;;;6.00;;
73959;SDS011;62316;48.920;2.342;2022-11-20T00:26:21;8.75;;;8.75;;
73959;SDS011;62316;48.920;2.342;2022-11-20T00:28:51;10.00;;;8.50;;
73959;SDS011;62316;48.920;2.342;2022-11-20T00:31:16;8.75;;;7.00;;
73959;SDS011;62316;48.920;2.342;2022-11-20T00:33:48;8.75;;;6.50;;
73959;SDS011;62316;48.920;2.342;2022-11-20T00:36:21;6.25;;;6.00;;
73959;SDS011;62316;48.920;2.342;2022-11-20T00:38:50;7.00;;;7.00;;
73959;SDS011;62316;48.920;2.342;2022-11-20T00:41:16;8.00;;;8.00;;
73959;SDS011;62316;48.920;2.342;2022-11-20T00:43:41;9.00;;;6.00;;
73959;SDS011;62316;48.920;2.342;2022-11-20T00:46:12;8.00;;;7.00;;
73959;SDS011;62316;48.920;2.342;2022-11-20T00:48:38;8.75;;;7.50;;
73959;SDS011;62316;48.920;2.342;2022-11-20T00:51:03;8.67;;;8.67;;
73959;SDS011;62316;48.920;2.342;2022-11-20T00:53:28;6.00;;;4.00;;
73959;SDS011;62316;48.920;2.342;2022-11-20T00:55:58;10.50;;;8.00;;
73959;SDS011;62316;48.920;2.342;2022-11-20T00:58:24;8.75;;;8.00;;
73959;SDS011;62316;48.920;2.342;2022-11-20T01:00:49;8.50;;;4.50;;
73959;SDS011;62316;48.920;2.342;2022-11-20T01:03:15;7.00;;;7.00;;
73959;SDS011;62316;48.920;2.342;2022-11-20T01:05:41;6.00;;;6.00;;
73959;SDS011;62316;48.920;2.342;2022-11-20T01:08:06;7.67;;;7.00;;
73959;SDS011;62316;48.920;2.342;2022-11-20T01:10:31;8.00;;;6.33;;
73959;SDS011;62316;48.920;2.342;2022-11-20T01:12:56;9.00;;;5.50;;
73959;SDS011;62316;48.920;2.342;2022-11-20T01:15:40;8.00;;;5.25;;
73959;SDS011;62316;48.920;2.342;2022-11-20T01:18:06;7.00;;;6.00;;
73959;SDS011;62316;48.920;2.342;2022-11-20T01:20:34;8.67;;;7.67;;
73959;SDS011;62316;48.920;2.342;2022-11-20T01:22:59;3.75;;;3.75;;
73959;SDS011;62316;48.920;2.342;2022-11-20T01:25:24;6.50;;;6.50;;
73959;SDS011;62316;48.920;2.342;2022-11-20T01:27:50;8.00;;;6.50;;
73959;SDS011;62316;48.920;2.342;2022-11-20T01:30:15;2.00;;;1.00;;
73959;SDS011;62316;48.920;2.342;2022-11-20T01:32:40;7.50;;;4.00;;
73959;SDS011;62316;48.920;2.342;2022-11-20T01:35:05;6.67;;;4.67;;
73959;SDS011;62316;48.920;2.342;2022-11-20T01:37:30;3.33;;;3.00;;
73959;SDS011;62316;48.920;2.342;2022-11-20T01:39:56;5.00;;;4.33;;
73959;SDS011;62316;48.920;2.342;2022-11-20T01:42:21;6.67;;;4.00;;
73959;SDS011;62316;48.920;2.342;2022-11-20T01:47:49;7.67;;;4.67;;
73959;SDS011;62316;48.920;2.342;2022-11-20T01:50:17;3.00;;;3.00;;
73959;SDS011;62316;48.920;2.342;2022-11-20T01:52:45;5.50;;;2.75;;
73959;SDS011;62316;48.920;2.342;2022-11-20T01:55:12;3.75;;;3.75;;
73959;SDS011;62316;48.920;2.342;2022-11-20T01:57:39;2.67;;;2.67;;
73959;SDS011;62316;48.920;2.342;2022-11-20T02:00:06;3.00;;;3.00;;
73959;SDS011;62316;48.920;2.342;2022-11-20T02:02:32;2.75;;;2.75;;
73959;SDS011;62316;48.920;2.342;2022-11-20T02:05:00;3.75;;;3.75;;
73959;SDS011;62316;48.920;2.342;2022-11-20T02:07:26;3.25;;;3.25;;
73959;SDS011;62316;48.920;2.342;2022-11-20T02:09:59;3.50;;;3.50;;
73959;SDS011;62316;48.920;2.342;2022-11-20T02:12:24;4.00;;;3.00;;
73959;SDS011;62316;48.920;2.342;2022-11-20T02:15:08;3.50;;;3.00;;
73959;SDS011;62316;48.920;2.342;2022-11-20T02:17:33;6.25;;;3.00;;
73959;SDS011;62316;48.920;2.342;2022-11-20T02:19:58;5.50;;;2.00;;
73959;SDS011;62316;48.920;2.342;2022-11-20T02:23:10;3.00;;;3.00;;
73959;SDS011;62316;48.920;2.342;2022-11-20T02:25:09;4.75;;;2.75;;
73959;SDS011;62316;48.920;2.342;2022-11-20T02:27:34;3.75;;;3.75;;
73959;SDS011;62316;48.920;2.342;2022-11-20T02:30:00;2.75;;;2.75;;
73959;SDS011;62316;48.920;2.342;2022-11-20T02:32:31;3.00;;;3.00;;
73959;SDS011;62316;48.920;2.342;2022-11-20T02:37:44;2.67;;;2.67;;
73959;SDS011;62316;48.920;2.342;2022-11-20T02:40:10;3.33;;;3.00;;
73959;SDS011;62316;48.920;2.342;2022-11-20T02:42:35;2.50;;;1.75;;
73959;SDS011;62316;48.920;2.342;2022-11-20T02:45:01;3.25;;;3.25;;
73959;SDS011;62316;48.920;2.342;2022-11-20T02:47:26;5.33;;;2.67;;
73959;SDS011;62316;48.920;2.342;2022-11-20T02:49:51;2.00;;;2.00;;
73959;SDS011;62316;48.920;2.342;2022-11-20T02:52:16;3.00;;;2.00;;
73959;SDS011;62316;48.920;2.342;2022-11-20T02:54:42;3.00;;;3.00;;
73959;SDS011;62316;48.920;2.342;2022-11-20T02:57:07;6.00;;;3.50;;
73959;SDS011;62316;48.920;2.342;2022-11-20T02:59:32;3.50;;;3.50;;
73959;SDS011;62316;48.920;2.342;2022-11-20T03:01:57;3.00;;;3.00;;
73959;SDS011;62316;48.920;2.342;2022-11-20T03:04:22;4.00;;;3.00;;
73959;SDS011;62316;48.920;2.342;2022-11-20T03:06:48;2.67;;;2.00;;
73959;SDS011;62316;48.920;2.342;2022-11-20T03:09:13;5.33;;;3.33;;
73959;SDS011;62316;48.920;2.342;2022-11-20T03:11:38;3.00;;;3.00;;
73959;SDS011;62316;48.920;2.342;2022-11-20T03:14:04;3.00;;;3.00;;
73959;SDS011;62316;48.920;2.342;2022-11-20T03:16:30;3.00;;;3.00;;
73959;SDS011;62316;48.920;2.342;2022-11-20T03:18:55;1.25;;;1.25;;
73959;SDS011;62316;48.920;2.342;2022-11-20T03:21:21;6.67;;;3.33;;
73959;SDS011;62316;48.920;2.342;2022-11-20T03:23:46;4.00;;;3.00;;
73959;SDS011;62316;48.920;2.342;2022-11-20T03:26:13;2.75;;;2.75;;
73959;SDS011;62316;48.920;2.342;2022-11-20T03:28:39;6.00;;;4.50;;
73959;SDS011;62316;48.920;2.342;2022-11-20T03:31:05;3.50;;;3.50;;
73959;SDS011;62316;48.920;2.342;2022-11-20T03:33:30;5.00;;;3.25;;
73959;SDS011;62316;48.920;2.342;2022-11-20T03:36:00;3.00;;;3.00;;
73959;SDS011;62316;48.920;2.342;2022-11-20T03:38:25;6.75;;;5.00;;
73959;SDS011;62316;48.920;2.342;2022-11-20T03:40:50;6.00;;;6.00;;
73959;SDS011;62316;48.920;2.342;2022-11-20T03:43:15;5.00;;;4.00;;
73959;SDS011;62316;48.920;2.342;2022-11-20T03:45:41;2.33;;;2.33;;
73959;SDS011;62316;48.920;2.342;2022-11-20T03:48:06;4.50;;;4.50;;
73959;SDS011;62316;48.920;2.342;2022-11-20T03:50:31;2.25;;;2.25;;
73959;SDS011;62316;48.920;2.342;2022-11-20T03:52:56;7.50;;;4.00;;
73959;SDS011;62316;48.920;2.342;2022-11-20T03:55:21;4.00;;;4.00;;
73959;SDS011;62316;48.920;2.342;2022-11-20T03:57:46;4.00;;;3.00;;
73959;SDS011;62316;48.920;2.342;2022-11-20T04:00:12;6.50;;;4.75;;
73959;SDS011;62316;48.920;2.342;2022-11-20T04:02:37;3.00;;;3.00;;
73959;SDS011;62316;48.920;2.342;2022-11-20T04:05:03;7.00;;;3.00;;
73959;SDS011;62316;48.920;2.342;2022-11-20T04:07:28;4.25;;;3.00;;
73959;SDS011;62316;48.920;2.342;2022-11-20T04:09:53;4.00;;;1.00;;
73959;SDS011;62316;48.920;2.342;2022-11-20T04:12:18;3.75;;;3.00;;
73959;SDS011;62316;48.920;2.342;2022-11-20T04:14:43;8.50;;;6.50;;
73959;SDS011;62316;48.920;2.342;2022-11-20T04:17:09;7.75;;;7.75;;
73959;SDS011;62316;48.920;2.342;2022-11-20T04:19:34;1.00;;;1.00;;
73959;SDS011;62316;48.920;2.342;2022-11-20T04:21:59;6.75;;;6.75;;
73959;SDS011;62316;48.920;2.342;2022-11-20T04:24:24;7.75;;;5.50;;
73959;SDS011;62316;48.920;2.342;2022-11-20T04:26:49;4.00;;;3.75;;
73959;SDS011;62316;48.920;2.342;2022-11-20T04:29:14;2.50;;;2.50;;
73959;SDS011;62316;48.920;2.342;2022-11-20T04:31:40;2.33;;;2.33;;
73959;SDS011;62316;48.920;2.342;2022-11-20T04:34:05;2.67;;;2.00;;
73959;SDS011;62316;48.920;2.342;2022-11-20T04:36:31;1.00;;;1.00;;
73959;SDS011;62316;48.920;2.342;2022-11-20T04:38:58;3.00;;;3.00;;
73959;SDS011;62316;48.920;2.342;2022-11-20T04:41:24;1.33;;;1.33;;
73959;SDS011;62316;48.920;2.342;2022-11-20T04:43:51;2.00;;;2.00;;
73959;SDS011;62316;48.920;2.342;2022-11-20T04:46:17;1.25;;;1.25;;
73959;SDS011;62316;48.920;2.342;2022-11-20T04:48:42;4.00;;;3.00;;
73959;SDS011;62316;48.920;2.342;2022-11-20T04:51:07;1.00;;;1.00;;
73959;SDS011;62316;48.920;2.342;2022-11-20T04:53:32;3.50;;;2.00;;
73959;SDS011;62316;48.920;2.342;2022-11-20T04:56:01;4.00;;;2.50;;
73959;SDS011;62316;48.920;2.342;2022-11-20T04:58:27;2.25;;;2.25;;
73959;SDS011;62316;48.920;2.342;2022-11-20T05:00:52;2.00;;;2.00;;
73959;SDS011;62316;48.920;2.342;2022-11-20T05:03:17;2.50;;;2.25;;
73959;SDS011;62316;48.920;2.342;2022-11-20T05:05:43;0.67;;;0.00;;
73959;SDS011;62316;48.920;2.342;2022-11-20T05:08:08;2.33;;;1.33;;
73959;SDS011;62316;48.920;2.342;2022-11-20T05:10:33;2.67;;;1.67;;
73959;SDS011;62316;48.920;2.342;2022-11-20T05:12:58;1.00;;;1.00;;
73959;SDS011;62316;48.920;2.342;2022-11-20T05:15:23;3.33;;;2.00;;
73959;SDS011;62316;48.920;2.342;2022-11-20T05:17:49;5.33;;;2.33;;
73959;SDS011;62316;48.920;2.342;2022-11-20T05:20:15;3.00;;;1.00;;
73959;SDS011;62316;48.920;2.342;2022-11-20T05:22:40;4.67;;;3.00;;
73959;SDS011;62316;48.920;2.342;2022-11-20T05:25:05;2.00;;;2.00;;
73959;SDS011;62316;48.920;2.342;2022-11-20T05:27:30;2.00;;;2.00;;
73959;SDS011;62316;48.920;2.342;2022-11-20T05:29:55;2.00;;;2.00;;
73959;SDS011;62316;48.920;2.342;2022-11-20T05:32:21;2.50;;;2.00;;
73959;SDS011;62316;48.920;2.342;2022-11-20T05:34:46;4.67;;;2.00;;
73959;SDS011;62316;48.920;2.342;2022-11-20T05:37:11;1.00;;;1.00;;
73959;SDS011;62316;48.920;2.342;2022-11-20T05:39:36;5.00;;;3.00;;
73959;SDS011;62316;48.920;2.342;2022-11-20T05:42:01;1.00;;;1.00;;
73959;SDS011;62316;48.920;2.342;2022-11-20T05:44:46;3.00;;;3.00;;
73959;SDS011;62316;48.920;2.342;2022-11-20T05:47:11;2.00;;;2.00;;
73959;SDS011;62316;48.920;2.342;2022-11-20T05:49:36;2.67;;;1.00;;
73959;SDS011;62316;48.920;2.342;2022-11-20T05:52:01;1.67;;;1.00;;
73959;SDS011;62316;48.920;2.342;2022-11-20T05:54:26;2.67;;;2.67;;
73959;SDS011;62316;48.920;2.342;2022-11-20T05:56:52;3.00;;;2.00;;
73959;SDS011;62316;48.920;2.342;2022-11-20T05:59:17;2.67;;;2.67;;
73959;SDS011;62316;48.920;2.342;2022-11-20T06:01:42;1.67;;;1.67;;
73959;SDS011;62316;48.920;2.342;2022-11-20T06:04:07;1.67;;;1.00;;
73959;SDS011;62316;48.920;2.342;2022-11-20T06:06:32;1.50;;;1.50;;
73959;SDS011;62316;48.920;2.342;2022-11-20T06:08:58;2.00;;;1.00;;
73959;SDS011;62316;48.920;2.342;2022-11-20T06:11:23;2.33;;;1.00;;
73959;SDS011;62316;48.920;2.342;2022-11-20T06:13:49;2.33;;;2.33;;
73959;SDS011;62316;48.920;2.342;2022-11-20T06:16:15;1.00;;;1.00;;
73959;SDS011;62316;48.920;2.342;2022-11-20T06:18:41;1.00;;;1.00;;
73959;SDS011;62316;48.920;2.342;2022-11-20T06:21:10;2.00;;;2.00;;
73959;SDS011;62316;48.920;2.342;2022-11-20T06:23:36;1.33;;;1.33;;
73959;SDS011;62316;48.920;2.342;2022-11-20T06:26:05;2.00;;;1.00;;
73959;SDS011;62316;48.920;2.342;2022-11-20T06:28:31;2.00;;;2.00;;
73959;SDS011;62316;48.920;2.342;2022-11-20T06:30:56;6.75;;;4.00;;
73959;SDS011;62316;48.920;2.342;2022-11-20T06:33:22;4.25;;;2.25;;
73959;SDS011;62316;48.920;2.342;2022-11-20T06:35:47;3.50;;;2.00;;
73959;SDS011;62316;48.920;2.342;2022-11-20T06:38:12;5.50;;;2.50;;
73959;SDS011;62316;48.920;2.342;2022-11-20T06:40:39;6.00;;;4.00;;
73959;SDS011;62316;48.920;2.342;2022-11-20T06:43:04;6.00;;;2.25;;
73959;SDS011;62316;48.920;2.342;2022-11-20T06:45:29;3.75;;;2.75;;
73959;SDS011;62316;48.920;2.342;2022-11-20T06:47:56;5.33;;;2.67;;
73959;SDS011;62316;48.920;2.342;2022-11-20T06:50:22;8.00;;;2.25;;
73959;SDS011;62316;48.920;2.342;2022-11-20T06:52:47;2.00;;;2.00;;
73959;SDS011;62316;48.920;2.342;2022-11-20T06:55:12;2.00;;;2.00;;
73959;SDS011;62316;48.920;2.342;2022-11-20T06:57:37;2.25;;;2.00;;
73959;SDS011;62316;48.920;2.342;2022-11-20T07:00:02;3.67;;;3.67;;
73959;SDS011;62316;48.920;2.342;2022-11-20T07:02:28;4.00;;;2.00;;
73959;SDS011;62316;48.920;2.342;2022-11-20T07:04:53;4.00;;;4.00;;
73959;SDS011;62316;48.920;2.342;2022-11-20T07:07:18;1.67;;;1.67;;
73959;SDS011;62316;48.920;2.342;2022-11-20T07:09:43;2.25;;;1.75;;
73959;SDS011;62316;48.920;2.342;2022-11-20T07:12:08;3.50;;;1.25;;
73959;SDS011;62316;48.920;2.342;2022-11-20T07:14:34;2.00;;;2.00;;
73959;SDS011;62316;48.920;2.342;2022-11-20T07:16:59;1.00;;;1.00;;
73959;SDS011;62316;48.920;2.342;2022-11-20T07:19:24;4.25;;;3.00;;
73959;SDS011;62316;48.920;2.342;2022-11-20T07:21:50;5.00;;;4.00;;
73959;SDS011;62316;48.920;2.342;2022-11-20T07:24:15;2.33;;;2.33;;
73959;SDS011;62316;48.920;2.342;2022-11-20T07:26:40;2.00;;;1.00;;
73959;SDS011;62316;48.920;2.342;2022-11-20T07:29:05;3.25;;;3.00;;
73959;SDS011;62316;48.920;2.342;2022-11-20T07:31:30;2.00;;;2.00;;
73959;SDS011;62316;48.920;2.342;2022-11-20T07:33:56;2.33;;;2.33;;
73959;SDS011;62316;48.920;2.342;2022-11-20T07:36:21;2.00;;;2.00;;
73959;SDS011;62316;48.920;2.342;2022-11-20T07:38:46;4.67;;;3.00;;
73959;SDS011;62316;48.920;2.342;2022-11-20T07:41:11;4.75;;;4.00;;
73959;SDS011;62316;48.920;2.342;2022-11-20T07:43:36;4.00;;;3.00;;
73959;SDS011;62316;48.920;2.342;2022-11-20T07:46:02;8.00;;;5.75;;
73959;SDS011;62316;48.920;2.342;2022-11-20T07:48:28;4.00;;;4.00;;
73959;SDS011;62316;48.920;2.342;2022-11-20T07:50:56;3.00;;;3.00;;
73959;SDS011;62316;48.920;2.342;2022-11-20T07:53:22;2.75;;;2.75;;
73959;SDS011;62316;48.920;2.342;2022-11-20T07:55:47;3.75;;;2.00;;
73959;SDS011;62316;48.920;2.342;2022-11-20T07:58:12;2.00;;;2.00;;
73959;SDS011;62316;48.920;2.342;2022-11-20T08:00:38;6.50;;;3.25;;
73959;SDS011;62316;48.920;2.342;2022-11-20T08:03:04;2.00;;;2.00;;
73959;SDS011;62316;48.920;2.342;2022-11-20T08:05:29;2.75;;;2.75;;
73959;SDS011;62316;48.920;2.342;2022-11-20T08:07:54;3.75;;;3.00;;
73959;SDS011;62316;48.920;2.342;2022-11-20T08:10:19;7.00;;;3.00;;
73959;SDS011;62316;48.920;2.342;2022-11-20T08:12:48;2.25;;;2.25;;
73959;SDS011;62316;48.920;2.342;2022-11-20T08:15:32;3.00;;;3.00;;
73959;SDS011;62316;48.920;2.342;2022-11-20T08:18:01;3.00;;;2.00;;
73959;SDS011;62316;48.920;2.342;2022-11-20T08:20:27;1.33;;;0.00;;
73959;SDS011;62316;48.920;2.342;2022-11-20T08:22:56;2.00;;;2.00;;
73959;SDS011;62316;48.920;2.342;2022-11-20T08:25:22;3.33;;;3.33;;
73959;SDS011;62316;48.920;2.342;2022-11-20T08:27:47;3.00;;;2.00;;
73959;SDS011;62316;48.920;2.342;2022-11-20T08:30:12;6.25;;;4.50;;
73959;SDS011;62316;48.920;2.342;2022-11-20T08:32:38;2.75;;;2.00;;
73959;SDS011;62316;48.920;2.342;2022-11-20T08:35:03;3.00;;;3.00;;
73959;SDS011;62316;48.920;2.342;2022-11-20T08:37:28;5.33;;;3.00;;
73959;SDS011;62316;48.920;2.342;2022-11-20T08:39:53;2.00;;;2.00;;
73959;SDS011;62316;48.920;2.342;2022-11-20T08:42:21;4.00;;;3.00;;
73959;SDS011;62316;48.920;2.342;2022-11-20T08:44:47;6.00;;;2.00;;
73959;SDS011;62316;48.920;2.342;2022-11-20T08:47:12;6.75;;;3.75;;
73959;SDS011;62316;48.920;2.342;2022-11-20T08:49:37;2.33;;;1.67;;
73959;SDS011;62316;48.920;2.342;2022-11-20T08:52:02;4.00;;;4.00;;
73959;SDS011;62316;48.920;2.342;2022-11-20T08:54:27;4.00;;;4.00;;
73959;SDS011;62316;48.920;2.342;2022-11-20T08:56:52;3.75;;;3.75;;
73959;SDS011;62316;48.920;2.342;2022-11-20T08:59:18;10.25;;;8.00;;
73959;SDS011;62316;48.920;2.342;2022-11-20T09:01:43;8.00;;;5.00;;
73959;SDS011;62316;48.920;2.342;2022-11-20T09:04:08;6.00;;;6.00;;
73959;SDS011;62316;48.920;2.342;2022-11-20T09:06:33;7.25;;;6.00;;
73959;SDS011;62316;48.920;2.342;2022-11-20T09:08:59;7.75;;;4.75;;
73959;SDS011;62316;48.920;2.342;2022-11-20T09:11:24;6.00;;;6.00;;
73959;SDS011;62316;48.920;2.342;2022-11-20T09:13:49;4.25;;;3.75;;
73959;SDS011;62316;48.920;2.342;2022-11-20T09:16:15;5.00;;;5.00;;
73959;SDS011;62316;48.920;2.342;2022-11-20T09:18:40;6.33;;;4.00;;
73959;SDS011;62316;48.920;2.342;2022-11-20T09:21:06;6.00;;;4.00;;
73959;SDS011;62316;48.920;2.342;2022-11-20T09:23:32;8.67;;;6.33;;
73959;SDS011;62316;48.920;2.342;2022-11-20T09:26:00;8.50;;;5.00;;
73959;SDS011;62316;48.920;2.342;2022-11-20T09:28:26;5.75;;;4.00;;
73959;SDS011;62316;48.920;2.342;2022-11-20T09:30:51;7.25;;;6.75;;
73959;SDS011;62316;48.920;2.342;2022-11-20T09:33:16;8.25;;;7.00;;
73959;SDS011;62316;48.920;2.342;2022-11-20T09:35:42;6.25;;;6.25;;
73959;SDS011;62316;48.920;2.342;2022-11-20T09:38:08;6.75;;;5.00;;
73959;SDS011;62316;48.920;2.342;2022-11-20T09:40:35;5.00;;;5.00;;
73959;SDS011;62316;48.920;2.342;2022-11-20T09:43:07;8.25;;;6.50;;
73959;SDS011;62316;48.920;2.342;2022-11-20T09:50:36;7.00;;;7.00;;
73959;SDS011;62316;48.920;2.342;2022-11-20T09:55:35;12.00;;;9.00;;
73959;SDS011;62316;48.920;2.342;2022-11-20T09:58:01;5.75;;;5.75;;
73959;SDS011;62316;48.920;2.342;2022-11-20T10:00:28;6.75;;;6.00;;
73959;SDS011;62316;48.920;2.342;2022-11-20T10:05:25;9.00;;;8.00;;
73959;SDS011;62316;48.920;2.342;2022-11-20T10:07:53;7.25;;;7.00;;
73959;SDS011;62316;48.920;2.342;2022-11-20T10:10:29;9.75;;;9.75;;
73959;SDS011;62316;48.920;2.342;2022-11-20T10:13:44;9.25;;;9.00;;
73959;SDS011;62316;48.920;2.342;2022-11-20T10:16:03;7.67;;;7.67;;
73959;SDS011;62316;48.920;2.342;2022-11-20T10:29:02;11.25;;;10.00;;
73959;SDS011;62316;48.920;2.342;2022-11-20T10:33:57;16.40;;;14.80;;
73959;SDS011;62316;48.920;2.342;2022-11-20T10:36:37;7.00;;;5.75;;
73959;SDS011;62316;48.920;2.342;2022-11-20T10:39:05;10.00;;;10.00;;
73959;SDS011;62316;48.920;2.342;2022-11-20T10:41:33;9.00;;;8.75;;
73959;SDS011;62316;48.920;2.342;2022-11-20T10:44:04;9.00;;;7.50;;
73959;SDS011;62316;48.920;2.342;2022-11-20T10:46:38;10.00;;;8.50;;
73959;SDS011;62316;48.920;2.342;2022-11-20T10:49:09;9.25;;;9.00;;
73959;SDS011;62316;48.920;2.342;2022-11-20T10:51:43;7.50;;;6.75;;
73959;SDS011;62316;48.920;2.342;2022-11-20T10:56:59;9.25;;;6.50;;
73959;SDS011;62316;48.920;2.342;2022-11-20T11:02:14;8.75;;;8.25;;
73959;SDS011;62316;48.920;2.342;2022-11-20T11:04:42;9.25;;;8.25;;
73959;SDS011;62316;48.920;2.342;2022-11-20T11:09:39;8.50;;;5.00;;
73959;SDS011;62316;48.920;2.342;2022-11-20T11:12:06;4.75;;;4.75;;
73959;SDS011;62316;48.920;2.342;2022-11-20T11:14:41;4.00;;;4.00;;
73959;SDS011;62316;48.920;2.342;2022-11-20T11:17:32;7.75;;;4.00;;
73959;SDS011;62316;48.920;2.342;2022-11-20T11:20:03;8.50;;;4.00;;
73959;SDS011;62316;48.920;2.342;2022-11-20T11:22:29;4.00;;;4.00;;
73959;SDS011;62316;48.920;2.342;2022-11-20T11:24:56;3.25;;;3.25;;
73959;SDS011;62316;48.920;2.342;2022-11-20T11:27:21;5.75;;;3.50;;
73959;SDS011;62316;48.920;2.342;2022-11-20T11:29:47;4.00;;;4.00;;
73959;SDS011;62316;48.920;2.342;2022-11-20T11:32:17;5.00;;;5.00;;
73959;SDS011;62316;48.920;2.342;2022-11-20T11:34:42;2.00;;;2.00;;
73959;SDS011;62316;48.920;2.342;2022-11-20T11:37:26;3.33;;;3.33;;
73959;SDS011;62316;48.920;2.342;2022-11-20T11:39:56;3.33;;;3.33;;
73959;SDS011;62316;48.920;2.342;2022-11-20T11:42:21;3.25;;;3.25;;
73959;SDS011;62316;48.920;2.342;2022-11-20T11:44:47;3.00;;;3.00;;
73959;SDS011;62316;48.920;2.342;2022-11-20T11:52:36;2.33;;;2.33;;
73959;SDS011;62316;48.920;2.342;2022-11-20T11:55:03;1.67;;;1.67;;
73959;SDS011;62316;48.920;2.342;2022-11-20T12:00:05;2.00;;;1.00;;
73959;SDS011;62316;48.920;2.342;2022-11-20T12:07:37;1.00;;;1.00;;
73959;SDS011;62316;48.920;2.342;2022-11-20T12:10:04;2.00;;;2.00;;
73959;SDS011;62316;48.920;2.342;2022-11-20T12:12:43;2.00;;;2.00;;
73959;SDS011;62316;48.920;2.342;2022-11-20T12:15:10;2.00;;;1.00;;
73959;SDS011;62316;48.920;2.342;2022-11-20T12:17:36;1.33;;;1.33;;
73959;SDS011;62316;48.920;2.342;2022-11-20T12:20:01;2.00;;;1.67;;
73959;SDS011;62316;48.920;2.342;2022-11-20T12:22:41;1.33;;;1.33;;
73959;SDS011;62316;48.920;2.342;2022-11-20T12:25:10;0.33;;;0.33;;
73959;SDS011;62316;48.920;2.342;2022-11-20T12:30:20;1.00;;;1.00;;
73959;SDS011;62316;48.920;2.342;2022-11-20T12:40:38;3.00;;;3.00;;
73959;SDS011;62316;48.920;2.342;2022-11-20T12:43:18;3.00;;;2.00;;
73959;SDS011;62316;48.920;2.342;2022-11-20T12:51:09;4.00;;;3.00;;
73959;SDS011;62316;48.920;2.342;2022-11-20T12:53:42;3.00;;;3.00;;
73959;SDS011;62316;48.920;2.342;2022-11-20T12:58:47;5.00;;;5.00;;
73959;SDS011;62316;48.920;2.342;2022-11-20T13:06:51;10.00;;;9.33;;
73959;SDS011;62316;48.920;2.342;2022-11-20T13:09:18;10.75;;;9.50;;
73959;SDS011;62316;48.920;2.342;2022-11-20T13:14:14;3.75;;;3.75;;
73959;SDS011;62316;48.920;2.342;2022-11-20T13:16:45;4.00;;;4.00;;
73959;SDS011;62316;48.920;2.342;2022-11-20T13:19:14;3.00;;;3.00;;
73959;SDS011;62316;48.920;2.342;2022-11-20T13:21:41;5.00;;;4.00;;
73959;SDS011;62316;48.920;2.342;2022-11-20T13:24:20;8.00;;;4.67;;
73959;SDS011;62316;48.920;2.342;2022-11-20T13:29:35;5.67;;;4.00;;
73959;SDS011;62316;48.920;2.342;2022-11-20T13:32:20;5.67;;;4.33;;
73959;SDS011;62316;48.920;2.342;2022-11-20T13:34:55;7.75;;;7.75;;
73959;SDS011;62316;48.920;2.342;2022-11-20T13:37:25;16.00;;;14.75;;
73959;SDS011;62316;48.920;2.342;2022-11-20T13:39:51;14.25;;;13.75;;
73959;SDS011;62316;48.920;2.342;2022-11-20T13:42:24;29.50;;;25.50;;
73959;SDS011;62316;48.920;2.342;2022-11-20T13:45:00;18.00;;;15.50;;
73959;SDS011;62316;48.920;2.342;2022-11-20T13:47:26;13.50;;;10.25;;
73959;SDS011;62316;48.920;2.342;2022-11-20T13:49:53;10.33;;;5.00;;
73959;SDS011;62316;48.920;2.342;2022-11-20T14:00:04;6.33;;;4.00;;
73959;SDS011;62316;48.920;2.342;2022-11-20T14:02:30;7.67;;;7.00;;
73959;SDS011;62316;48.920;2.342;2022-11-20T14:04:56;17.00;;;11.75;;
73959;SDS011;62316;48.920;2.342;2022-11-20T14:07:24;15.50;;;14.00;;
73959;SDS011;62316;48.920;2.342;2022-11-20T14:09:51;12.75;;;11.75;;
73959;SDS011;62316;48.920;2.342;2022-11-20T14:12:18;10.25;;;8.25;;
73959;SDS011;62316;48.920;2.342;2022-11-20T14:14:51;5.75;;;5.75;;
73959;SDS011;62316;48.920;2.342;2022-11-20T14:19:54;8.25;;;6.75;;
73959;SDS011;62316;48.920;2.342;2022-11-20T14:22:23;5.33;;;5.00;;
73959;SDS011;62316;48.920;2.342;2022-11-20T14:25:00;7.00;;;5.67;;
73959;SDS011;62316;48.920;2.342;2022-11-20T14:27:25;4.33;;;3.00;;
73959;SDS011;62316;48.920;2.342;2022-11-20T14:29:51;7.00;;;4.00;;
73959;SDS011;62316;48.920;2.342;2022-11-20T14:32:17;5.00;;;3.67;;
73959;SDS011;62316;48.920;2.342;2022-11-20T14:34:43;4.67;;;4.00;;
73959;SDS011;62316;48.920;2.342;2022-11-20T14:37:12;8.50;;;8.00;;
73959;SDS011;62316;48.920;2.342;2022-11-20T14:39:42;11.75;;;10.25;;
73959;SDS011;62316;48.920;2.342;2022-11-20T14:42:15;10.75;;;10.75;;
73959;SDS011;62316;48.920;2.342;2022-11-20T14:44:42;8.50;;;6.50;;
73959;SDS011;62316;48.920;2.342;2022-11-20T14:47:08;8.67;;;4.33;;
73959;SDS011;62316;48.920;2.342;2022-11-20T14:49:33;5.00;;;5.00;;
73959;SDS011;62316;48.920;2.342;2022-11-20T14:52:01;4.00;;;4.00;;
73959;SDS011;62316;48.920;2.342;2022-11-20T14:54:27;4.67;;;2.00;;
73959;SDS011;62316;48.920;2.342;2022-11-20T14:57:00;5.67;;;5.00;;
73959;SDS011;62316;48.920;2.342;2022-11-20T14:59:27;13.67;;;8.67;;
73959;SDS011;62316;48.920;2.342;2022-11-20T15:02:26;4.33;;;4.00;;
73959;SDS011;62316;48.920;2.342;2022-11-20T15:04:47;9.33;;;8.33;;
73959;SDS011;62316;48.920;2.342;2022-11-20T15:07:23;10.25;;;8.25;;
73959;SDS011;62316;48.920;2.342;2022-11-20T15:09:58;8.00;;;8.00;;
73959;SDS011;62316;48.920;2.342;2022-11-20T15:12:24;11.67;;;9.67;;
73959;SDS011;62316;48.920;2.342;2022-11-20T15:14:49;10.00;;;8.00;;
73959;SDS011;62316;48.920;2.342;2022-11-20T15:17:14;5.67;;;5.67;;
73959;SDS011;62316;48.920;2.342;2022-11-20T15:19:39;7.00;;;6.67;;
73959;SDS011;62316;48.920;2.342;2022-11-20T15:22:07;8.75;;;7.75;;
73959;SDS011;62316;48.920;2.342;2022-11-20T15:24:34;7.25;;;7.00;;
73959;SDS011;62316;48.920;2.342;2022-11-20T15:26:59;9.33;;;6.33;;
73959;SDS011;62316;48.920;2.342;2022-11-20T15:29:24;6.33;;;4.67;;
73959;SDS011;62316;48.920;2.342;2022-11-20T15:31:49;8.25;;;7.00;;
73959;SDS011;62316;48.920;2.342;2022-11-20T15:34:15;4.33;;;4.33;;
73959;SDS011;62316;48.920;2.342;2022-11-20T15:36:41;10.00;;;6.67;;
73959;SDS011;62316;48.920;2.342;2022-11-20T15:39:07;7.00;;;4.00;;
73959;SDS011;62316;48.920;2.342;2022-11-20T15:41:35;5.00;;;4.00;;
73959;SDS011;62316;48.920;2.342;2022-11-20T15:44:01;9.67;;;4.67;;
73959;SDS011;62316;48.920;2.342;2022-11-20T15:46:26;5.00;;;3.67;;
73959;SDS011;62316;48.920;2.342;2022-11-20T15:48:56;4.00;;;4.00;;
73959;SDS011;62316;48.920;2.342;2022-11-20T15:51:29;3.33;;;3.33;;
73959;SDS011;62316;48.920;2.342;2022-11-20T15:53:55;3.00;;;3.00;;
73959;SDS011;62316;48.920;2.342;2022-11-20T15:56:21;3.33;;;3.33;;
73959;SDS011;62316;48.920;2.342;2022-11-20T15:58:46;4.00;;;3.00;;
73959;SDS011;62316;48.920;2.342;2022-11-20T16:01:12;8.67;;;4.00;;
73959;SDS011;62316;48.920;2.342;2022-11-20T16:03:38;2.00;;;2.00;;
73959;SDS011;62316;48.920;2.342;2022-11-20T16:06:04;1.00;;;1.00;;
73959;SDS011;62316;48.920;2.342;2022-11-20T16:08:29;2.00;;;2.00;;
73959;SDS011;62316;48.920;2.342;2022-11-20T16:10:54;3.00;;;3.00;;
73959;SDS011;62316;48.920;2.342;2022-11-20T16:13:19;2.33;;;1.00;;
73959;SDS011;62316;48.920;2.342;2022-11-20T16:16:04;2.00;;;2.00;;